AirNav   Everest Fuels
 
 1014 users online  

23TN Copper Basin Medical Center Heliport
Copperhill, Tennessee, USA

GOING TO COPPERHILL?


FAA INFORMATION EFFECTIVE 05 DECEMBER 2019

Location

FAA Identifier: 23TN
Lat/Long: 35-01-37.4600N 084-23-06.1000W
35-01.624333N 084-23.101667W
35.0270722,-84.3850278
(estimated)
Elevation: 1691 ft. / 515 m (estimated)
Variation: 04W (2000)
From city: 3 miles NE of COPPERHILL, TN
Time zone: UTC -5 (UTC -4 during Daylight Saving Time)
Zip code: 37317

Heliport Operations

Heliport use: Private use. Permission required prior to landing
Activation date: 07/2010
Control tower: no
ARTCC: ATLANTA CENTER
FSS: NASHVILLE FLIGHT SERVICE STATION
NOTAMs facility: FDC (NOTAM-D service not available)
Attendance: CONTINUOUS
Wind indicator: yes
Segmented circle: no
Lights: SS-SR

Nearby radio navigation aids

VOR radial/distance  VOR name  Freq  Var
HRSr282/23.6HARRIS VORTAC109.8000E
GQOr083/38.0CHOO CHOO VORTAC115.8001E

 
NDB name  Hdg/Dist  Freq  Var  ID
MC MINN COUNTY162/23.724203WMMI -- -- ..
MARK ANTON140/38.239404WDTE -.. - .
DAISY104/38.834102WCQN -.-. --.- -.

Heliport Services

Runway Information

Helipad H1

Dimensions: 50 x 50 ft. / 15 x 15 m
Surface: concrete, in good condition
Latitude: 35-01.624333N
Longitude: 084-23.101667W
Elevation: 1691.0 ft.
Traffic pattern: leftleft

Heliport Ownership and Management from official FAA records

Ownership: Privately-owned
Owner: COPPER BASIN MEDICAL CENTER
STATE HWY 68
COPPER HILL, TN 37317
Phone 423-496-5511
Manager: JEFF WITHROW, DIR OF PLANT OPS
STATE HWY 68
COPPER HILL, TN 37317
Phone (423) 548-2742

Additional Remarks

FOR CD CTC ATLANTA ARTCC AT 770-210-7692.

Instrument Procedures

There are no published instrument procedures at 23TN.

Some nearby airports with instrument procedures:

1A3 - Martin Campbell Field Airport (2 nm E)
KDZJ - Blairsville Airport (22 nm SE)
KRZR - Cleveland Regional Jetport (23 nm NW)
KMMI - McMinn County Airport (24 nm N)
49A - Gilmer County Airport (25 nm S)
 
Loc | Ops | Rwys | IFR | FBO | Links
Com | Nav | Svcs | Stats | Notes
Aerial photo
No photo
 
Sectional chart

 
Airport distance calculator
Flying to Copper Basin Medical Center Heliport? Find the distance to fly.

From to 23TN

Sunrise and sunset
Times for 09-Dec-2019
 Local
(UTC-5)
 Zulu
(UTC)
Morning civil twilight07:0712:07
Sunrise07:3512:35
Sunset17:2522:25
Evening civil twilight17:5322:53

Current date and time
Zulu (UTC)  10-Dec-2019 00:09:02
Local (UTC-5)  09-Dec-2019 19:09:02
 
METAR
KDZJ 
22nm SE 
092355Z AUTO 17007KT 10SM BKN027 OVC040 13/11 A3000 RMK AO2 T01350107 10138 20116 401380065
KRZR 
23nm NW 
092355Z AUTO 21012G18KT 10SM SCT033 BKN039 OVC065 14/13 A2992 RMK A01
KMMI 
24nm N 
092355Z AUTO 23008KT 10SM FEW070 OVC110 15/12 A2992 RMK A01
K49A 
25nm S 
092355Z AUTO 00000KT 10SM OVC031 12/11 A3002 RMK AO2 T01200105 10120 20096
KRHP 
28nm E 
092355Z AUTO 00000KT 10SM OVC026 12/12 A2998 RMK AO2 T01160116 10135 20116
KMNV 
31nm N 
092355Z AUTO 21008KT 10SM FEW032 SCT065 BKN080 16/12 A2989 RMK A01
KJZP 
35nm S 
092355Z AUTO 00000KT M1/4SM FG OVC002 08/08 A3003 RMK AO2 T00810081 10083 20065
K2A0 
38nm NW 
092355Z AUTO 22006G11KT 10SM SCT029 SCT048 BKN110 13/11 A2990 RMK A01
KCHA 
40nm W 
092353Z 14005KT 10SM OVC028 14/11 A2993 RMK AO2 RAB04E25 SLP133 P0000 60000 T01440106 10144 20128 51014
KDNN 
41nm SW 
092355Z AUTO 18004KT 10SM OVC036 13/10 A2998 RMK AO2
TAF
KCHA 
40nm W 
091732Z 0918/1018 19012G20KT P6SM OVC020 FM100000 19007KT P6SM VCSH SCT007 BKN012 WS020/21040KT FM100500 21005KT 5SM -SHRA BKN008 FM101300 34012KT P6SM -SHRA BKN020
NOTAMs
Click for the latest NOTAMs
NOTAMs are issued by the DoD/FAA and will open in a separate window not controlled by AirNav.

 

 
 

Would you like to see your business listed on this page?

 If your business provides an interesting product or service to pilots, flight crews, aircraft, or users of the Copper Basin Medical Center Heliport, you should consider listing it here.  To start the listing process, click on the button below
 
Add a business
 

Other Pages about Copper Basin Medical Center Heliport

Update a link
 
Copyright © AirNav, LLC. All rights reserved. Privacy Policy  Contact